| time (UTC) | temp C | wind direction | speed KPH | gust KPH | rain 1hr cm | rain 24hr cm | rain mn cm | humidity % | barometer mb |
| 20260906213015 | 32 | 230 | 16.1 | 20.9 | 0.00 | 0.00 | 0.00 | 28 | 1001.4 |
| 20260906211513 | 31 | 231 | 14.5 | 24.1 | 0.00 | 0.00 | 0.00 | 30 | 1001.6 |
| 20260906210019 | 31 | 230 | 17.7 | 29.0 | 0.00 | 0.00 | 0.00 | 28 | 1001.6 |
| 20260906204511 | 31 | 230 | 16.1 | 24.1 | 0.00 | 0.00 | 0.00 | 27 | 1001.9 |
| 20260906203006 | 31 | 230 | 14.5 | 22.5 | 0.00 | 0.00 | 0.00 | 29 | 1002.0 |
| 20260906201505 | 31 | 230 | 17.7 | 27.4 | 0.00 | 0.00 | 0.00 | 31 | 1001.8 |
| 20260906200003 | 31 | 231 | 16.1 | 25.7 | 0.00 | 0.00 | 0.00 | 29 | 1002.0 |
| 20260906194502 | 31 | 230 | 12.9 | 24.1 | 0.00 | 0.00 | 0.00 | 30 | 1002.3 |
| 20260906193057 | 30 | 230 | 14.5 | 22.5 | 0.00 | 0.00 | 0.00 | 32 | 1002.6 |
| 20260906191610 | 30 | 230 | 12.9 | 19.3 | 0.00 | 0.00 | 0.00 | 34 | 1002.9 |
| 20260906190053 | 30 | 230 | 11.3 | 17.7 | 0.00 | 0.00 | 0.00 | 32 | 1003.3 |
| 20260906184558 | 30 | 231 | 6.4 | 11.3 | 0.00 | 0.00 | 0.00 | 35 | 1003.5 |
| 20260906183047 | 29 | 231 | 8.0 | 12.9 | 0.00 | 0.00 | 0.00 | 35 | 1003.8 |
| 20260906181543 | 28 | 232 | 6.4 | 17.7 | 0.00 | 0.00 | 0.00 | 38 | 1004.0 |
| 20260906180056 | 28 | 231 | 4.8 | 11.3 | 0.00 | 0.00 | 0.00 | 34 | 1004.1 |
| 20260906174539 | 27 | 230 | 3.2 | 11.3 | 0.00 | 0.00 | 0.00 | 42 | 1004.4 |
| 20260906173032 | 26 | 230 | 3.2 | 11.3 | 0.00 | 0.00 | 0.00 | 47 | 1004.6 |
| 20260906171528 | 26 | 230 | 4.8 | 11.3 | 0.00 | 0.00 | 0.00 | 51 | 1004.9 |
| 20260906170025 | 24 | 230 | 6.4 | 11.3 | 0.00 | 0.00 | 0.00 | 58 | 1005.1 |
| 20260906164522 | 23 | 230 | 8.0 | 12.9 | 0.00 | 0.00 | 0.00 | 59 | 1005.4 |
| 20260906163018 | 23 | 230 | 6.4 | 11.3 | 0.00 | 0.00 | 0.00 | 61 | 1005.6 |
| 20260906161516 | 22 | 230 | 1.6 | 8.0 | 0.00 | 0.00 | 0.00 | 62 | 1005.8 |
| 20260906160013 | 22 | 230 | 1.6 | 6.4 | 0.00 | 0.00 | 0.00 | 63 | 1006.0 |
| 20260906154511 | 21 | 230 | 3.2 | 9.7 | 0.00 | 0.00 | 0.00 | 65 | 1006.1 |
| 20260906153016 | 21 | 230 | 1.6 | 8.0 | 0.00 | 0.00 | 0.00 | 66 | 1006.2 |
| 20260906151508 | 20 | 231 | 3.2 | 8.0 | 0.00 | 0.00 | 0.00 | 70 | 1006.1 |
| 20260906150008 | 20 | 230 | 0.0 | 0.0 | 0.00 | 0.00 | 0.00 | 69 | 1006.3 |
| 20260906144513 | 20 | 230 | 0.0 | 0.0 | 0.00 | 0.00 | 0.00 | 70 | 1006.5 |
| 20260906143009 | 18 | 230 | 0.0 | 0.0 | 0.00 | 0.00 | 0.00 | 75 | 1006.8 |
| 20260906141508 | 17 | 230 | 0.0 | 0.0 | 0.00 | 0.00 | 0.00 | 78 | 1006.8 |
| 20260906140006 | 16 | 230 | 0.0 | 6.4 | 0.00 | 0.00 | 0.00 | 79 | 1007.0 |
| 20260906134504 | 15 | 230 | 0.0 | 0.0 | 0.00 | 0.00 | 0.00 | 82 | 1007.0 |
| 20260906133002 | 14 | 230 | 4.8 | 9.7 | 0.00 | 0.00 | 0.00 | 83 | 1007.0 |
| 20260906131615 | 13 | 230 | 0.0 | 0.0 | 0.00 | 0.00 | 0.00 | 86 | 1006.8 |
| 20260906130107 | 13 | 230 | 0.0 | 0.0 | 0.00 | 0.00 | 0.00 | 87 | 1006.8 |
| 20260906124557 | 13 | 230 | 0.0 | 0.0 | 0.00 | 0.00 | 0.00 | 87 | 1006.5 |
| 20260906123056 | 13 | 230 | 0.0 | 0.0 | 0.00 | 0.00 | 0.00 | 86 | 1006.5 |
| 20260906121553 | 13 | 230 | 0.0 | 0.0 | 0.00 | 0.00 | 0.00 | 89 | 1006.3 |
| 20260906120058 | 13 | 230 | 0.0 | 0.0 | 0.00 | 0.00 | 0.00 | 86 | 1006.3 |
| 20260906114546 | 13 | 230 | 0.0 | 0.0 | 0.00 | 0.00 | 0.00 | 84 | 1005.9 |
| 20260906113043 | 14 | 230 | 0.0 | 0.0 | 0.00 | 0.00 | 0.00 | 82 | 1006.0 |
| 20260906111541 | 15 | 230 | 0.0 | 0.0 | 0.00 | 0.00 | 0.00 | 81 | 1006.0 |
| 20260906110037 | 15 | 230 | 0.0 | 0.0 | 0.00 | 0.00 | 0.00 | 80 | 1006.0 |
| 20260906104538 | 15 | 230 | 0.0 | 0.0 | 0.00 | 0.00 | 0.00 | 79 | 1006.0 |
| 20260906103034 | 15 | 231 | 0.0 | 1.6 | 0.00 | 0.00 | 0.00 | 80 | 1005.9 |
| 20260906101532 | 15 | 230 | 0.0 | 3.2 | 0.00 | 0.00 | 0.00 | 78 | 1005.8 |
| 20260906100030 | 16 | 230 | 0.0 | 0.0 | 0.00 | 0.00 | 0.00 | 79 | 1005.8 |
| 20260906094626 | 16 | 230 | 1.6 | 6.4 | 0.00 | 0.00 | 0.00 | 76 | 1005.6 |
| 20260906093031 | 17 | 230 | 0.0 | 0.0 | 0.00 | 0.00 | 0.00 | 76 | 1005.6 |
| 20260906091523 | 17 | 230 | 0.0 | 0.0 | 0.00 | 0.00 | 0.00 | 77 | 1005.6 |
| 20260906090023 | 17 | 230 | 0.0 | 8.0 | 0.00 | 0.00 | 0.00 | 77 | 1005.7 |
| 20260906084521 | 17 | 230 | 3.2 | 9.7 | 0.00 | 0.00 | 0.00 | 77 | 1005.6 |
| 20260906083023 | 17 | 230 | 4.8 | 8.0 | 0.00 | 0.00 | 0.00 | 77 | 1005.7 |
| 20260906081525 | 17 | 230 | 0.0 | 9.7 | 0.00 | 0.00 | 0.00 | 76 | 1005.5 |
| 20260906080016 | 17 | 231 | 0.0 | 0.0 | 0.00 | 0.00 | 0.00 | 75 | 1005.1 |
| 20260906074514 | 18 | 231 | 0.0 | 6.4 | 0.00 | 0.00 | 0.00 | 74 | 1005.2 |
| 20260906073010 | 18 | 231 | 0.0 | 0.0 | 0.00 | 0.00 | 0.00 | 73 | 1005.5 |
| 20260906071507 | 18 | 230 | 0.0 | 3.2 | 0.00 | 0.00 | 0.00 | 70 | 1005.3 |
| 20260906070003 | 19 | 231 | 0.0 | 0.0 | 0.00 | 0.00 | 0.00 | 66 | 1005.1 |
| 20260906064559 | 20 | 230 | 0.0 | 0.0 | 0.00 | 0.00 | 0.00 | 63 | 1005.1 |
| 20260906063057 | 21 | 230 | 3.2 | 8.0 | 0.00 | 0.00 | 0.00 | 63 | 1005.0 |
| 20260906061556 | 20 | 230 | 0.0 | 6.4 | 0.00 | 0.00 | 0.00 | 64 | 1005.1 |
| 20260906060100 | 21 | 230 | 0.0 | 4.8 | 0.00 | 0.00 | 0.00 | 63 | 1005.1 |
| 20260906054553 | 20 | 230 | 0.0 | 0.0 | 0.00 | 0.00 | 0.00 | 64 | 1005.2 |
| 20260906053052 | 21 | 231 | 1.6 | 4.8 | 0.00 | 0.00 | 0.00 | 63 | 1005.3 |
| 20260906051555 | 22 | 231 | 0.0 | 9.7 | 0.00 | 0.00 | 0.00 | 59 | 1005.4 |
| 20260906050053 | 22 | 231 | 6.4 | 12.9 | 0.00 | 0.00 | 0.00 | 58 | 1005.6 |
| 20260906044550 | 23 | 230 | 4.8 | 12.9 | 0.00 | 0.00 | 0.00 | 54 | 1005.9 |
| 20260906043048 | 23 | 230 | 8.0 | 22.5 | 0.00 | 0.00 | 0.00 | 52 | 1006.0 |
| 20260906041549 | 23 | 231 | 6.4 | 17.7 | 0.00 | 0.00 | 0.00 | 49 | 1005.9 |
| 20260906040049 | 24 | 231 | 8.0 | 20.9 | 0.00 | 0.00 | 0.00 | 48 | 1005.8 |
| 20260906034546 | 23 | 230 | 6.4 | 11.3 | 0.00 | 0.00 | 0.00 | 47 | 1005.7 |
| 20260906033045 | 23 | 230 | 4.8 | 12.9 | 0.00 | 0.00 | 0.00 | 45 | 1005.7 |
| 20260906031544 | 23 | 230 | 6.4 | 9.7 | 0.00 | 0.00 | 0.00 | 45 | 1005.9 |
| 20260906030045 | 24 | 230 | 3.2 | 9.7 | 0.00 | 0.00 | 0.00 | 43 | 1005.6 |
| 20260906024542 | 25 | 230 | 0.0 | 9.7 | 0.00 | 0.00 | 0.00 | 43 | 1005.4 |
| 20260906023045 | 25 | 230 | 1.6 | 12.9 | 0.00 | 0.00 | 0.00 | 40 | 1005.1 |
| 20260906021543 | 26 | 230 | 14.5 | 22.5 | 0.00 | 0.00 | 0.00 | 34 | 1004.7 |
| 20260906020041 | 27 | 230 | 0.0 | 0.0 | 0.00 | 0.00 | 0.00 | 27 | 1004.2 |
| 20260906014545 | 27 | 230 | 0.0 | 0.0 | 0.00 | 0.00 | 0.00 | 27 | 1004.0 |
| 20260906013040 | 27 | 230 | 0.0 | 0.0 | 0.00 | 0.00 | 0.00 | 29 | 1003.9 |
| 20260906011539 | 27 | 230 | 0.0 | 0.0 | 0.00 | 0.00 | 0.00 | 30 | 1003.9 |
| 20260906010039 | 28 | 230 | 0.0 | 6.4 | 0.00 | 0.00 | 0.00 | 28 | 1004.0 |
| 20260906004539 | 28 | 230 | 0.0 | 0.0 | 0.00 | 0.00 | 0.00 | 27 | 1003.9 |
| 20260906003037 | 28 | 230 | 0.0 | 6.4 | 0.00 | 0.00 | 0.00 | 28 | 1003.8 |
| 20260906001536 | 28 | 230 | 0.0 | 16.1 | 0.00 | 0.00 | 0.00 | 27 | 1003.6 |
| 20260906000039 | 28 | 231 | 1.6 | 11.3 | 0.00 | 0.00 | 0.00 | 31 | 1003.6 |
| 20260905234536 | 30 | 230 | 3.2 | 9.7 | 0.00 | 0.00 | 0.00 | 26 | 1003.6 |
| 20260905233042 | 31 | 231 | 1.6 | 9.7 | 0.00 | 0.00 | 0.00 | 26 | 1003.5 |
| 20260905231544 | 31 | 231 | 0.0 | 9.7 | 0.00 | 0.00 | 0.00 | 22 | 1003.6 |
| 20260905230034 | 31 | 230 | 0.0 | 11.3 | 0.00 | 0.00 | 0.00 | 22 | 1003.6 |
| 20260905224541 | 31 | 231 | 3.2 | 16.1 | 0.00 | 0.00 | 0.00 | 22 | 1003.5 |
| 20260905223032 | 31 | 230 | 0.0 | 8.0 | 0.00 | 0.00 | 0.00 | 21 | 1003.6 |
| 20260905221537 | 31 | 230 | 8.0 | 12.9 | 0.00 | 0.00 | 0.00 | 22 | 1003.7 |
| 20260905220030 | 31 | 230 | 0.0 | 8.0 | 0.00 | 0.00 | 0.00 | 22 | 1003.9 |
| 20260905214529 | 30 | 230 | 11.3 | 19.3 | 0.00 | 0.00 | 0.00 | 23 | 1004.1 |